sensor_id;sensor_type;location;lat;lon;timestamp;temperature;humidity
69054;DHT22;56125;52.242;4.756;2022-12-07T00:03:48;17.10;47.40
69054;DHT22;56125;52.242;4.756;2022-12-07T00:08:49;17.00;47.40
69054;DHT22;56125;52.242;4.756;2022-12-07T00:13:56;17.00;47.40
69054;DHT22;56125;52.242;4.756;2022-12-07T00:18:57;17.00;47.40
69054;DHT22;56125;52.242;4.756;2022-12-07T00:23:59;17.10;47.40
69054;DHT22;56125;52.242;4.756;2022-12-07T00:29:05;17.00;47.40
69054;DHT22;56125;52.242;4.756;2022-12-07T00:34:09;17.10;47.40
69054;DHT22;56125;52.242;4.756;2022-12-07T00:39:12;17.00;47.40
69054;DHT22;56125;52.242;4.756;2022-12-07T00:44:13;17.00;47.40
69054;DHT22;56125;52.242;4.756;2022-12-07T00:49:14;17.00;47.40
69054;DHT22;56125;52.242;4.756;2022-12-07T00:54:15;17.00;47.30
69054;DHT22;56125;52.242;4.756;2022-12-07T00:59:16;17.00;47.30
69054;DHT22;56125;52.242;4.756;2022-12-07T01:04:17;17.00;47.40
69054;DHT22;56125;52.242;4.756;2022-12-07T01:09:18;17.00;47.30
69054;DHT22;56125;52.242;4.756;2022-12-07T01:14:19;17.00;47.40
69054;DHT22;56125;52.242;4.756;2022-12-07T01:19:20;17.00;47.30
69054;DHT22;56125;52.242;4.756;2022-12-07T01:24:21;17.00;47.30
69054;DHT22;56125;52.242;4.756;2022-12-07T01:29:22;17.10;47.20
69054;DHT22;56125;52.242;4.756;2022-12-07T01:34:23;17.10;47.20
69054;DHT22;56125;52.242;4.756;2022-12-07T01:39:24;17.10;47.20
69054;DHT22;56125;52.242;4.756;2022-12-07T01:44:30;17.10;47.20
69054;DHT22;56125;52.242;4.756;2022-12-07T01:49:39;17.10;47.10
69054;DHT22;56125;52.242;4.756;2022-12-07T01:54:43;17.10;47.10
69054;DHT22;56125;52.242;4.756;2022-12-07T01:59:45;17.10;47.10
69054;DHT22;56125;52.242;4.756;2022-12-07T02:04:48;17.10;47.10
69054;DHT22;56125;52.242;4.756;2022-12-07T02:09:49;17.10;47.10
69054;DHT22;56125;52.242;4.756;2022-12-07T02:14:50;17.10;47.00
69054;DHT22;56125;52.242;4.756;2022-12-07T02:20:19;17.10;47.00
69054;DHT22;56125;52.242;4.756;2022-12-07T02:30:50;17.10;47.00
69054;DHT22;56125;52.242;4.756;2022-12-07T02:36:10;17.10;47.10
69054;DHT22;56125;52.242;4.756;2022-12-07T02:41:28;17.10;47.00
69054;DHT22;56125;52.242;4.756;2022-12-07T02:46:33;17.20;47.10
69054;DHT22;56125;52.242;4.756;2022-12-07T02:51:41;17.20;47.00
69054;DHT22;56125;52.242;4.756;2022-12-07T03:12:22;17.20;47.00
69054;DHT22;56125;52.242;4.756;2022-12-07T03:17:27;17.20;46.80
69054;DHT22;56125;52.242;4.756;2022-12-07T03:22:31;17.20;46.90
69054;DHT22;56125;52.242;4.756;2022-12-07T03:27:41;17.30;46.70
69054;DHT22;56125;52.242;4.756;2022-12-07T03:32:50;17.30;46.80
69054;DHT22;56125;52.242;4.756;2022-12-07T03:38:00;17.30;46.70
69054;DHT22;56125;52.242;4.756;2022-12-07T03:43:03;17.30;46.70
69054;DHT22;56125;52.242;4.756;2022-12-07T03:48:22;17.40;46.60
69054;DHT22;56125;52.242;4.756;2022-12-07T03:53:40;17.30;46.50
69054;DHT22;56125;52.242;4.756;2022-12-07T03:58:42;17.40;46.40
69054;DHT22;56125;52.242;4.756;2022-12-07T04:03:43;17.40;46.30
69054;DHT22;56125;52.242;4.756;2022-12-07T04:08:44;17.50;46.40
69054;DHT22;56125;52.242;4.756;2022-12-07T04:13:45;17.50;46.30
69054;DHT22;56125;52.242;4.756;2022-12-07T04:19:05;17.50;46.20
69054;DHT22;56125;52.242;4.756;2022-12-07T04:24:06;17.50;46.10
69054;DHT22;56125;52.242;4.756;2022-12-07T04:29:08;18.40;46.40
69054;DHT22;56125;52.242;4.756;2022-12-07T04:34:10;17.60;46.20
69054;DHT22;56125;52.242;4.756;2022-12-07T04:39:32;17.60;45.80
69054;DHT22;56125;52.242;4.756;2022-12-07T04:44:33;17.60;46.70
69054;DHT22;56125;52.242;4.756;2022-12-07T04:49:34;17.60;45.60
69054;DHT22;56125;52.242;4.756;2022-12-07T04:54:35;17.60;45.60
69054;DHT22;56125;52.242;4.756;2022-12-07T04:59:36;17.70;45.40
69054;DHT22;56125;52.242;4.756;2022-12-07T05:04:37;17.70;45.40
69054;DHT22;56125;52.242;4.756;2022-12-07T05:09:38;17.80;45.40
69054;DHT22;56125;52.242;4.756;2022-12-07T05:14:39;17.70;45.10
69054;DHT22;56125;52.242;4.756;2022-12-07T05:19:40;17.80;44.90
69054;DHT22;56125;52.242;4.756;2022-12-07T05:24:41;17.80;45.10
69054;DHT22;56125;52.242;4.756;2022-12-07T05:29:42;17.80;44.80
69054;DHT22;56125;52.242;4.756;2022-12-07T05:34:43;17.80;45.00
69054;DHT22;56125;52.242;4.756;2022-12-07T05:39:44;17.90;44.80
69054;DHT22;56125;52.242;4.756;2022-12-07T05:44:46;17.90;45.00
69054;DHT22;56125;52.242;4.756;2022-12-07T05:49:47;17.90;44.80
69054;DHT22;56125;52.242;4.756;2022-12-07T05:54:48;17.90;45.00
69054;DHT22;56125;52.242;4.756;2022-12-07T05:59:49;17.90;44.70
69054;DHT22;56125;52.242;4.756;2022-12-07T06:04:50;17.90;45.20
69054;DHT22;56125;52.242;4.756;2022-12-07T06:09:51;18.00;45.00
69054;DHT22;56125;52.242;4.756;2022-12-07T06:14:52;18.00;45.20
69054;DHT22;56125;52.242;4.756;2022-12-07T06:19:53;18.00;44.70
69054;DHT22;56125;52.242;4.756;2022-12-07T06:24:54;18.00;45.10
69054;DHT22;56125;52.242;4.756;2022-12-07T06:29:55;18.00;44.90
69054;DHT22;56125;52.242;4.756;2022-12-07T06:34:56;17.90;45.00
69054;DHT22;56125;52.242;4.756;2022-12-07T06:39:57;18.00;44.80
69054;DHT22;56125;52.242;4.756;2022-12-07T06:44:58;18.00;45.20
69054;DHT22;56125;52.242;4.756;2022-12-07T06:49:59;18.00;44.90
69054;DHT22;56125;52.242;4.756;2022-12-07T06:55:00;17.90;45.30
69054;DHT22;56125;52.242;4.756;2022-12-07T07:00:02;17.90;44.80
69054;DHT22;56125;52.242;4.756;2022-12-07T07:05:03;17.90;44.40
69054;DHT22;56125;52.242;4.756;2022-12-07T07:10:05;17.80;44.50
69054;DHT22;56125;52.242;4.756;2022-12-07T07:15:07;17.80;44.90
69054;DHT22;56125;52.242;4.756;2022-12-07T07:20:08;17.80;44.80
69054;DHT22;56125;52.242;4.756;2022-12-07T07:25:09;17.80;45.00
69054;DHT22;56125;52.242;4.756;2022-12-07T07:30:10;17.80;44.80
69054;DHT22;56125;52.242;4.756;2022-12-07T07:35:12;17.70;44.30
69054;DHT22;56125;52.242;4.756;2022-12-07T07:40:14;17.70;44.00
69054;DHT22;56125;52.242;4.756;2022-12-07T07:45:16;17.70;44.20
69054;DHT22;56125;52.242;4.756;2022-12-07T07:50:17;18.20;43.70
69054;DHT22;56125;52.242;4.756;2022-12-07T07:55:19;18.50;44.10
69054;DHT22;56125;52.242;4.756;2022-12-07T08:00:21;18.70;43.20
69054;DHT22;56125;52.242;4.756;2022-12-07T08:05:22;18.80;44.20
69054;DHT22;56125;52.242;4.756;2022-12-07T08:10:23;18.80;44.40
69054;DHT22;56125;52.242;4.756;2022-12-07T08:15:25;18.90;44.40
69054;DHT22;56125;52.242;4.756;2022-12-07T08:20:26;18.90;44.70
69054;DHT22;56125;52.242;4.756;2022-12-07T08:25:28;18.80;44.50
69054;DHT22;56125;52.242;4.756;2022-12-07T08:30:29;18.80;45.00
69054;DHT22;56125;52.242;4.756;2022-12-07T08:35:33;18.90;45.00
69054;DHT22;56125;52.242;4.756;2022-12-07T08:40:34;18.90;44.90
69054;DHT22;56125;52.242;4.756;2022-12-07T08:45:36;18.90;45.00
69054;DHT22;56125;52.242;4.756;2022-12-07T08:50:37;19.00;45.10
69054;DHT22;56125;52.242;4.756;2022-12-07T08:55:38;19.00;45.00
69054;DHT22;56125;52.242;4.756;2022-12-07T09:00:39;19.00;45.10
69054;DHT22;56125;52.242;4.756;2022-12-07T09:05:40;19.10;45.10
69054;DHT22;56125;52.242;4.756;2022-12-07T09:10:41;19.10;45.10
69054;DHT22;56125;52.242;4.756;2022-12-07T09:15:42;19.10;45.10
69054;DHT22;56125;52.242;4.756;2022-12-07T09:20:43;19.10;45.20
69054;DHT22;56125;52.242;4.756;2022-12-07T09:25:44;19.20;45.30
69054;DHT22;56125;52.242;4.756;2022-12-07T09:30:49;19.20;45.50
69054;DHT22;56125;52.242;4.756;2022-12-07T09:35:51;19.20;45.40
69054;DHT22;56125;52.242;4.756;2022-12-07T09:40:54;19.30;45.50
69054;DHT22;56125;52.242;4.756;2022-12-07T09:45:56;19.30;45.50
69054;DHT22;56125;52.242;4.756;2022-12-07T09:50:59;19.30;45.40
69054;DHT22;56125;52.242;4.756;2022-12-07T09:56:01;19.40;45.40
69054;DHT22;56125;52.242;4.756;2022-12-07T10:01:10;19.40;45.60
69054;DHT22;56125;52.242;4.756;2022-12-07T10:06:13;19.40;45.50
69054;DHT22;56125;52.242;4.756;2022-12-07T10:11:15;19.40;45.40
69054;DHT22;56125;52.242;4.756;2022-12-07T10:16:38;19.40;45.40
69054;DHT22;56125;52.242;4.756;2022-12-07T10:21:40;19.40;45.40
69054;DHT22;56125;52.242;4.756;2022-12-07T10:26:59;19.40;45.30
69054;DHT22;56125;52.242;4.756;2022-12-07T10:32:26;19.50;45.40
69054;DHT22;56125;52.242;4.756;2022-12-07T10:37:28;19.50;45.30
69054;DHT22;56125;52.242;4.756;2022-12-07T10:42:31;19.50;45.40
69054;DHT22;56125;52.242;4.756;2022-12-07T10:47:55;19.50;45.30
69054;DHT22;56125;52.242;4.756;2022-12-07T10:59:01;19.60;45.40
69054;DHT22;56125;52.242;4.756;2022-12-07T11:04:10;19.60;45.40
69054;DHT22;56125;52.242;4.756;2022-12-07T11:09:49;19.60;45.10
69054;DHT22;56125;52.242;4.756;2022-12-07T11:20:04;19.70;45.00
69054;DHT22;56125;52.242;4.756;2022-12-07T11:25:50;19.70;44.70
69054;DHT22;56125;52.242;4.756;2022-12-07T11:41:36;19.60;44.40
69054;DHT22;56125;52.242;4.756;2022-12-07T11:46:50;19.60;44.30
69054;DHT22;56125;52.242;4.756;2022-12-07T11:51:55;19.50;44.10
69054;DHT22;56125;52.242;4.756;2022-12-07T11:57:04;19.50;44.10
69054;DHT22;56125;52.242;4.756;2022-12-07T12:02:24;19.50;43.80
69054;DHT22;56125;52.242;4.756;2022-12-07T12:07:27;19.50;43.80
69054;DHT22;56125;52.242;4.756;2022-12-07T12:18:19;19.50;44.10
69054;DHT22;56125;52.242;4.756;2022-12-07T12:23:36;19.50;44.40
69054;DHT22;56125;52.242;4.756;2022-12-07T12:28:48;19.50;44.90
69054;DHT22;56125;52.242;4.756;2022-12-07T12:33:57;19.40;44.90
69054;DHT22;56125;52.242;4.756;2022-12-07T12:43:59;19.30;45.00
69054;DHT22;56125;52.242;4.756;2022-12-07T12:54:27;19.20;45.10
69054;DHT22;56125;52.242;4.756;2022-12-07T12:59:32;19.10;45.10
69054;DHT22;56125;52.242;4.756;2022-12-07T13:09:50;19.10;45.00
69054;DHT22;56125;52.242;4.756;2022-12-07T13:14:57;19.00;45.00
69054;DHT22;56125;52.242;4.756;2022-12-07T13:20:04;19.00;45.10
69054;DHT22;56125;52.242;4.756;2022-12-07T13:25:21;19.00;45.00
69054;DHT22;56125;52.242;4.756;2022-12-07T13:30:23;18.90;44.90
69054;DHT22;56125;52.242;4.756;2022-12-07T13:35:42;19.00;45.10
69054;DHT22;56125;52.242;4.756;2022-12-07T13:41:20;18.90;45.20
69054;DHT22;56125;52.242;4.756;2022-12-07T13:46:35;18.90;45.20
69054;DHT22;56125;52.242;4.756;2022-12-07T13:51:39;18.90;45.30
69054;DHT22;56125;52.242;4.756;2022-12-07T13:56:40;18.80;45.10
69054;DHT22;56125;52.242;4.756;2022-12-07T14:01:41;18.80;45.00
69054;DHT22;56125;52.242;4.756;2022-12-07T14:06:50;18.80;45.00
69054;DHT22;56125;52.242;4.756;2022-12-07T14:11:56;18.80;45.10
69054;DHT22;56125;52.242;4.756;2022-12-07T14:17:17;18.80;45.10
69054;DHT22;56125;52.242;4.756;2022-12-07T14:22:30;18.70;45.10
69054;DHT22;56125;52.242;4.756;2022-12-07T14:27:33;18.70;45.20
69054;DHT22;56125;52.242;4.756;2022-12-07T14:32:36;18.70;45.20
69054;DHT22;56125;52.242;4.756;2022-12-07T14:37:39;18.60;45.20
69054;DHT22;56125;52.242;4.756;2022-12-07T14:42:42;18.60;45.20
69054;DHT22;56125;52.242;4.756;2022-12-07T14:47:45;18.60;45.20
69054;DHT22;56125;52.242;4.756;2022-12-07T14:52:56;18.60;45.30
69054;DHT22;56125;52.242;4.756;2022-12-07T14:57:59;18.60;45.20
69054;DHT22;56125;52.242;4.756;2022-12-07T15:03:00;18.50;45.20
69054;DHT22;56125;52.242;4.756;2022-12-07T15:08:01;18.50;45.30
69054;DHT22;56125;52.242;4.756;2022-12-07T15:13:03;18.50;45.20
69054;DHT22;56125;52.242;4.756;2022-12-07T15:18:23;18.50;45.20
69054;DHT22;56125;52.242;4.756;2022-12-07T15:23:24;18.50;45.30
69054;DHT22;56125;52.242;4.756;2022-12-07T15:28:25;18.40;45.20
69054;DHT22;56125;52.242;4.756;2022-12-07T15:33:26;18.40;45.20
69054;DHT22;56125;52.242;4.756;2022-12-07T15:38:27;18.40;45.20
69054;DHT22;56125;52.242;4.756;2022-12-07T15:43:30;18.40;45.10
69054;DHT22;56125;52.242;4.756;2022-12-07T15:48:50;18.40;45.10
69054;DHT22;56125;52.242;4.756;2022-12-07T15:53:52;18.40;45.10
69054;DHT22;56125;52.242;4.756;2022-12-07T15:58:53;18.40;45.10
69054;DHT22;56125;52.242;4.756;2022-12-07T16:03:54;18.30;45.20
69054;DHT22;56125;52.242;4.756;2022-12-07T16:08:57;18.30;45.20
69054;DHT22;56125;52.242;4.756;2022-12-07T16:13:58;18.30;45.30
69054;DHT22;56125;52.242;4.756;2022-12-07T16:18:59;18.30;45.20
69054;DHT22;56125;52.242;4.756;2022-12-07T16:24:00;18.20;45.20
69054;DHT22;56125;52.242;4.756;2022-12-07T16:29:01;18.20;45.10
69054;DHT22;56125;52.242;4.756;2022-12-07T16:34:02;18.20;45.10
69054;DHT22;56125;52.242;4.756;2022-12-07T16:39:04;18.20;45.30
69054;DHT22;56125;52.242;4.756;2022-12-07T16:44:07;18.20;45.10
69054;DHT22;56125;52.242;4.756;2022-12-07T16:49:15;18.20;45.30
69054;DHT22;56125;52.242;4.756;2022-12-07T16:54:16;18.10;45.20
69054;DHT22;56125;52.242;4.756;2022-12-07T16:59:17;18.10;45.20
69054;DHT22;56125;52.242;4.756;2022-12-07T17:04:18;18.10;45.30
69054;DHT22;56125;52.242;4.756;2022-12-07T17:09:19;18.10;45.30
69054;DHT22;56125;52.242;4.756;2022-12-07T17:14:20;18.10;45.30
69054;DHT22;56125;52.242;4.756;2022-12-07T17:19:40;18.10;45.30
69054;DHT22;56125;52.242;4.756;2022-12-07T17:24:41;18.00;45.20
69054;DHT22;56125;52.242;4.756;2022-12-07T17:29:42;18.00;45.20
69054;DHT22;56125;52.242;4.756;2022-12-07T17:34:43;18.00;45.30
69054;DHT22;56125;52.242;4.756;2022-12-07T17:39:44;18.00;45.30
69054;DHT22;56125;52.242;4.756;2022-12-07T17:44:45;18.00;46.40
69054;DHT22;56125;52.242;4.756;2022-12-07T17:49:46;18.00;45.40
69054;DHT22;56125;52.242;4.756;2022-12-07T17:54:47;18.00;45.40
69054;DHT22;56125;52.242;4.756;2022-12-07T17:59:48;17.90;45.30
69054;DHT22;56125;52.242;4.756;2022-12-07T18:04:52;17.90;46.60
69054;DHT22;56125;52.242;4.756;2022-12-07T18:09:54;17.90;45.60
69054;DHT22;56125;52.242;4.756;2022-12-07T18:14:55;17.90;45.50
69054;DHT22;56125;52.242;4.756;2022-12-07T18:19:56;17.90;45.60
69054;DHT22;56125;52.242;4.756;2022-12-07T18:24:57;17.90;45.70
69054;DHT22;56125;52.242;4.756;2022-12-07T18:29:58;17.90;45.80
69054;DHT22;56125;52.242;4.756;2022-12-07T18:34:59;17.90;45.80
69054;DHT22;56125;52.242;4.756;2022-12-07T18:40:00;17.90;45.80
69054;DHT22;56125;52.242;4.756;2022-12-07T18:45:02;17.90;46.00
69054;DHT22;56125;52.242;4.756;2022-12-07T18:50:03;17.90;46.00
69054;DHT22;56125;52.242;4.756;2022-12-07T18:55:05;17.80;46.00
69054;DHT22;56125;52.242;4.756;2022-12-07T19:00:06;17.90;46.10
69054;DHT22;56125;52.242;4.756;2022-12-07T19:05:08;17.80;46.00
69054;DHT22;56125;52.242;4.756;2022-12-07T19:10:09;17.80;46.00
69054;DHT22;56125;52.242;4.756;2022-12-07T19:15:12;17.80;46.10
69054;DHT22;56125;52.242;4.756;2022-12-07T19:20:14;17.80;46.10
69054;DHT22;56125;52.242;4.756;2022-12-07T19:25:15;17.80;46.20
69054;DHT22;56125;52.242;4.756;2022-12-07T19:30:16;17.80;46.20
69054;DHT22;56125;52.242;4.756;2022-12-07T19:35:17;17.80;46.20
69054;DHT22;56125;52.242;4.756;2022-12-07T19:40:18;17.80;46.20
69054;DHT22;56125;52.242;4.756;2022-12-07T19:45:20;17.80;46.10
69054;DHT22;56125;52.242;4.756;2022-12-07T19:50:21;17.80;46.10
69054;DHT22;56125;52.242;4.756;2022-12-07T19:55:22;17.80;46.10
69054;DHT22;56125;52.242;4.756;2022-12-07T20:00:23;17.70;46.10
69054;DHT22;56125;52.242;4.756;2022-12-07T20:05:24;17.70;46.00
69054;DHT22;56125;52.242;4.756;2022-12-07T20:10:25;17.70;46.00
69054;DHT22;56125;52.242;4.756;2022-12-07T20:15:26;17.70;46.10
69054;DHT22;56125;52.242;4.756;2022-12-07T20:20:27;17.70;46.10
69054;DHT22;56125;52.242;4.756;2022-12-07T20:25:28;17.70;46.10
69054;DHT22;56125;52.242;4.756;2022-12-07T20:30:29;17.70;46.10
69054;DHT22;56125;52.242;4.756;2022-12-07T20:35:30;17.70;46.00
69054;DHT22;56125;52.242;4.756;2022-12-07T20:40:31;17.70;46.00
69054;DHT22;56125;52.242;4.756;2022-12-07T20:45:32;17.70;46.10
69054;DHT22;56125;52.242;4.756;2022-12-07T20:50:33;17.70;46.10
69054;DHT22;56125;52.242;4.756;2022-12-07T20:55:34;17.70;46.10
69054;DHT22;56125;52.242;4.756;2022-12-07T21:00:35;17.60;46.00
69054;DHT22;56125;52.242;4.756;2022-12-07T21:05:37;17.60;46.00
69054;DHT22;56125;52.242;4.756;2022-12-07T21:10:38;17.70;46.20
69054;DHT22;56125;52.242;4.756;2022-12-07T21:15:39;17.70;46.60
69054;DHT22;56125;52.242;4.756;2022-12-07T21:20:40;17.70;47.40
69054;DHT22;56125;52.242;4.756;2022-12-07T21:25:41;17.60;48.80
69054;DHT22;56125;52.242;4.756;2022-12-07T21:30:42;17.60;48.20
69054;DHT22;56125;52.242;4.756;2022-12-07T21:35:43;17.60;48.20
69054;DHT22;56125;52.242;4.756;2022-12-07T21:40:44;17.60;48.60
69054;DHT22;56125;52.242;4.756;2022-12-07T21:45:53;17.60;48.80
69054;DHT22;56125;52.242;4.756;2022-12-07T21:50:54;17.60;48.90
69054;DHT22;56125;52.242;4.756;2022-12-07T21:55:55;17.60;49.00
69054;DHT22;56125;52.242;4.756;2022-12-07T22:00:57;17.60;49.10
69054;DHT22;56125;52.242;4.756;2022-12-07T22:05:59;17.60;49.20
69054;DHT22;56125;52.242;4.756;2022-12-07T22:11:01;17.60;49.10
69054;DHT22;56125;52.242;4.756;2022-12-07T22:16:02;17.60;49.60
69054;DHT22;56125;52.242;4.756;2022-12-07T22:21:04;17.60;49.60
69054;DHT22;56125;52.242;4.756;2022-12-07T22:26:06;17.60;49.60
69054;DHT22;56125;52.242;4.756;2022-12-07T22:31:09;17.60;49.80
69054;DHT22;56125;52.242;4.756;2022-12-07T22:36:11;17.60;49.80
69054;DHT22;56125;52.242;4.756;2022-12-07T22:41:27;17.60;49.80
69054;DHT22;56125;52.242;4.756;2022-12-07T22:46:29;17.60;50.00
69054;DHT22;56125;52.242;4.756;2022-12-07T22:51:32;17.60;50.00
69054;DHT22;56125;52.242;4.756;2022-12-07T22:56:36;17.60;49.90
69054;DHT22;56125;52.242;4.756;2022-12-07T23:01:37;17.60;50.10
69054;DHT22;56125;52.242;4.756;2022-12-07T23:06:38;17.60;50.40
69054;DHT22;56125;52.242;4.756;2022-12-07T23:11:41;17.60;50.70
69054;DHT22;56125;52.242;4.756;2022-12-07T23:17:01;17.60;51.00
69054;DHT22;56125;52.242;4.756;2022-12-07T23:22:03;17.60;51.00
69054;DHT22;56125;52.242;4.756;2022-12-07T23:27:04;17.60;51.10
69054;DHT22;56125;52.242;4.756;2022-12-07T23:32:05;17.60;50.90
69054;DHT22;56125;52.242;4.756;2022-12-07T23:37:06;17.60;50.80
69054;DHT22;56125;52.242;4.756;2022-12-07T23:42:07;17.60;50.60
69054;DHT22;56125;52.242;4.756;2022-12-07T23:47:08;17.60;50.50
69054;DHT22;56125;52.242;4.756;2022-12-07T23:52:09;17.60;50.50
69054;DHT22;56125;52.242;4.756;2022-12-07T23:57:10;17.60;50.20
